Terminal Aerodrome Forecast
Issued by NWS New Orleans/Baton Rouge, LA

Home | Current Version | Previous Version | Text Only | Print | Product List | Glossary On
Versions: 1 2 3 4 5 6 7 8 9 10 11 12
000
FTUS44 KLIX 261136
TAFNEW
TAF
KNEW 261136Z 2612/2712 07007KT P6SM SKC
     FM262100 11007KT P6SM FEW045 SCT130 PROB30 2621/2624 4SM TSRA
      BKN045CB BKN120 BKN250
     FM270600 VRB03KT P6SM FEW250=

USA.gov is the U.S. government's official web portal to all federal, state and local government web resources and services.